Terminal Aerodrome Forecast
Issued by NWS

Home | Current Version | Previous Version | Text Only | Print | Product List | Glossary On
Versions: 1 2 3 4 5 6 7 8 9 10 11 12 13 14 15 16 17
000
FTUS44 KMAF 110500
TAFINK
TAF
KINK 110526Z 1106/1206 14012KT P6SM FEW250
     FM111200 16010KT P6SM FEW040 SCT250
     FM111600 14012G20KT P6SM BKN050=

USA.gov is the U.S. government's official web portal to all federal, state and local government web resources and services.